sensor_id;sensor_type;location;lat;lon;timestamp;temperature;humidity
316;DHT22;14128;48.686;9.738;2023-03-14T00:00:58;8.40;1.40
316;DHT22;14128;48.686;9.738;2023-03-14T00:03:25;8.50;1.40
316;DHT22;14128;48.686;9.738;2023-03-14T00:05:52;8.50;1.40
316;DHT22;14128;48.686;9.738;2023-03-14T00:08:18;8.50;1.40
316;DHT22;14128;48.686;9.738;2023-03-14T00:10:46;8.50;1.40
316;DHT22;14128;48.686;9.738;2023-03-14T00:13:14;8.60;1.40
316;DHT22;14128;48.686;9.738;2023-03-14T00:15:41;8.60;1.40
316;DHT22;14128;48.686;9.738;2023-03-14T00:18:08;8.60;1.40
316;DHT22;14128;48.686;9.738;2023-03-14T00:20:35;8.60;1.40
316;DHT22;14128;48.686;9.738;2023-03-14T00:23:02;8.50;1.40
316;DHT22;14128;48.686;9.738;2023-03-14T00:25:28;8.50;1.40
316;DHT22;14128;48.686;9.738;2023-03-14T00:27:55;8.50;1.40
316;DHT22;14128;48.686;9.738;2023-03-14T00:30:23;8.60;1.40
316;DHT22;14128;48.686;9.738;2023-03-14T00:32:50;8.50;1.40
316;DHT22;14128;48.686;9.738;2023-03-14T00:35:17;8.40;1.40
316;DHT22;14128;48.686;9.738;2023-03-14T00:37:44;8.50;1.40
316;DHT22;14128;48.686;9.738;2023-03-14T00:40:11;8.40;1.40
316;DHT22;14128;48.686;9.738;2023-03-14T00:42:38;8.40;1.40
316;DHT22;14128;48.686;9.738;2023-03-14T00:45:05;8.30;1.40
316;DHT22;14128;48.686;9.738;2023-03-14T00:47:34;8.20;1.40
316;DHT22;14128;48.686;9.738;2023-03-14T00:50:01;8.20;1.40
316;DHT22;14128;48.686;9.738;2023-03-14T00:52:28;8.10;1.40
316;DHT22;14128;48.686;9.738;2023-03-14T00:54:55;8.10;1.40
316;DHT22;14128;48.686;9.738;2023-03-14T00:57:21;8.00;1.40
316;DHT22;14128;48.686;9.738;2023-03-14T00:59:48;8.00;1.40
316;DHT22;14128;48.686;9.738;2023-03-14T01:02:15;7.90;1.40
316;DHT22;14128;48.686;9.738;2023-03-14T01:04:43;7.90;1.40
316;DHT22;14128;48.686;9.738;2023-03-14T01:07:10;7.90;1.40
316;DHT22;14128;48.686;9.738;2023-03-14T01:09:36;7.90;1.40
316;DHT22;14128;48.686;9.738;2023-03-14T01:12:03;7.90;1.40
316;DHT22;14128;48.686;9.738;2023-03-14T01:14:30;7.90;1.40
316;DHT22;14128;48.686;9.738;2023-03-14T01:16:57;7.90;1.40
316;DHT22;14128;48.686;9.738;2023-03-14T01:19:26;7.90;1.40
316;DHT22;14128;48.686;9.738;2023-03-14T01:21:54;7.90;1.40
316;DHT22;14128;48.686;9.738;2023-03-14T01:24:21;7.90;1.40
316;DHT22;14128;48.686;9.738;2023-03-14T01:26:48;7.90;1.40
316;DHT22;14128;48.686;9.738;2023-03-14T01:29:14;7.90;1.40
316;DHT22;14128;48.686;9.738;2023-03-14T01:31:41;7.90;1.40
316;DHT22;14128;48.686;9.738;2023-03-14T01:34:08;7.90;1.40
316;DHT22;14128;48.686;9.738;2023-03-14T01:36:35;7.80;1.40
316;DHT22;14128;48.686;9.738;2023-03-14T01:39:04;7.80;1.40
316;DHT22;14128;48.686;9.738;2023-03-14T01:41:32;7.70;1.40
316;DHT22;14128;48.686;9.738;2023-03-14T01:43:58;7.60;1.40
316;DHT22;14128;48.686;9.738;2023-03-14T01:46:32;7.60;1.40
316;DHT22;14128;48.686;9.738;2023-03-14T01:51:48;7.50;1.40
316;DHT22;14128;48.686;9.738;2023-03-14T01:54:21;7.50;1.40
316;DHT22;14128;48.686;9.738;2023-03-14T01:56:53;7.50;1.40
316;DHT22;14128;48.686;9.738;2023-03-14T01:59:21;7.50;1.40
316;DHT22;14128;48.686;9.738;2023-03-14T02:01:50;7.50;1.40
316;DHT22;14128;48.686;9.738;2023-03-14T02:04:19;7.50;1.40
316;DHT22;14128;48.686;9.738;2023-03-14T02:06:52;7.50;1.40
316;DHT22;14128;48.686;9.738;2023-03-14T02:09:23;7.50;1.40
316;DHT22;14128;48.686;9.738;2023-03-14T02:11:50;7.60;1.40
316;DHT22;14128;48.686;9.738;2023-03-14T02:14:25;7.60;1.40
316;DHT22;14128;48.686;9.738;2023-03-14T02:16:53;7.60;1.40
316;DHT22;14128;48.686;9.738;2023-03-14T02:19:27;7.60;1.40
316;DHT22;14128;48.686;9.738;2023-03-14T02:22:03;7.60;1.40
316;DHT22;14128;48.686;9.738;2023-03-14T02:24:38;7.60;1.40
316;DHT22;14128;48.686;9.738;2023-03-14T02:27:11;7.60;1.40
316;DHT22;14128;48.686;9.738;2023-03-14T02:29:45;7.60;1.40
316;DHT22;14128;48.686;9.738;2023-03-14T02:32:14;7.70;1.40
316;DHT22;14128;48.686;9.738;2023-03-14T02:34:43;7.70;1.40
316;DHT22;14128;48.686;9.738;2023-03-14T02:37:13;7.70;1.40
316;DHT22;14128;48.686;9.738;2023-03-14T02:39:43;7.70;1.40
316;DHT22;14128;48.686;9.738;2023-03-14T02:42:13;7.80;1.40
316;DHT22;14128;48.686;9.738;2023-03-14T02:44:48;7.80;1.40
316;DHT22;14128;48.686;9.738;2023-03-14T02:47:15;7.90;1.40
316;DHT22;14128;48.686;9.738;2023-03-14T02:49:42;7.80;1.40
316;DHT22;14128;48.686;9.738;2023-03-14T02:52:09;7.80;1.40
316;DHT22;14128;48.686;9.738;2023-03-14T02:54:36;7.80;1.40
316;DHT22;14128;48.686;9.738;2023-03-14T02:57:03;7.80;1.40
316;DHT22;14128;48.686;9.738;2023-03-14T02:59:31;7.90;1.40
316;DHT22;14128;48.686;9.738;2023-03-14T03:01:59;7.80;1.40
316;DHT22;14128;48.686;9.738;2023-03-14T03:04:26;7.90;1.40
316;DHT22;14128;48.686;9.738;2023-03-14T03:06:53;8.00;1.40
316;DHT22;14128;48.686;9.738;2023-03-14T03:09:20;8.00;1.40
316;DHT22;14128;48.686;9.738;2023-03-14T03:11:47;8.00;1.40
316;DHT22;14128;48.686;9.738;2023-03-14T03:14:13;8.00;1.40
316;DHT22;14128;48.686;9.738;2023-03-14T03:16:41;8.00;1.40
316;DHT22;14128;48.686;9.738;2023-03-14T03:19:08;8.10;1.40
316;DHT22;14128;48.686;9.738;2023-03-14T03:21:35;8.10;1.40
316;DHT22;14128;48.686;9.738;2023-03-14T03:24:02;8.10;1.40
316;DHT22;14128;48.686;9.738;2023-03-14T03:26:29;8.10;1.40
316;DHT22;14128;48.686;9.738;2023-03-14T03:28:55;8.10;1.40
316;DHT22;14128;48.686;9.738;2023-03-14T03:31:22;8.10;1.40
316;DHT22;14128;48.686;9.738;2023-03-14T03:33:50;8.10;1.40
316;DHT22;14128;48.686;9.738;2023-03-14T03:36:21;8.10;1.40
316;DHT22;14128;48.686;9.738;2023-03-14T03:38:48;8.10;1.40
316;DHT22;14128;48.686;9.738;2023-03-14T03:41:15;8.10;1.40
316;DHT22;14128;48.686;9.738;2023-03-14T03:43:42;8.10;1.40
316;DHT22;14128;48.686;9.738;2023-03-14T03:46:09;8.10;1.40
316;DHT22;14128;48.686;9.738;2023-03-14T03:48:36;8.00;1.40
316;DHT22;14128;48.686;9.738;2023-03-14T03:51:04;8.00;1.40
316;DHT22;14128;48.686;9.738;2023-03-14T03:53:31;7.90;1.40
316;DHT22;14128;48.686;9.738;2023-03-14T03:55:58;7.90;1.40
316;DHT22;14128;48.686;9.738;2023-03-14T03:58:25;7.80;1.40
316;DHT22;14128;48.686;9.738;2023-03-14T04:00:52;7.80;1.40
316;DHT22;14128;48.686;9.738;2023-03-14T04:03:19;7.70;1.40
316;DHT22;14128;48.686;9.738;2023-03-14T04:05:46;7.70;1.40
316;DHT22;14128;48.686;9.738;2023-03-14T04:08:14;7.70;1.40
316;DHT22;14128;48.686;9.738;2023-03-14T04:10:40;7.60;1.40
316;DHT22;14128;48.686;9.738;2023-03-14T04:13:07;7.60;1.40
316;DHT22;14128;48.686;9.738;2023-03-14T04:15:34;7.60;1.40
316;DHT22;14128;48.686;9.738;2023-03-14T04:18:01;7.60;1.40
316;DHT22;14128;48.686;9.738;2023-03-14T04:20:27;7.60;1.40
316;DHT22;14128;48.686;9.738;2023-03-14T04:22:54;7.50;1.40
316;DHT22;14128;48.686;9.738;2023-03-14T04:25:22;7.50;1.40
316;DHT22;14128;48.686;9.738;2023-03-14T04:27:49;7.40;1.40
316;DHT22;14128;48.686;9.738;2023-03-14T04:30:16;7.50;1.40
316;DHT22;14128;48.686;9.738;2023-03-14T04:32:43;7.50;1.40
316;DHT22;14128;48.686;9.738;2023-03-14T04:35:09;7.50;1.40
316;DHT22;14128;48.686;9.738;2023-03-14T04:37:36;7.40;1.40
316;DHT22;14128;48.686;9.738;2023-03-14T04:40:04;7.40;1.40
316;DHT22;14128;48.686;9.738;2023-03-14T04:42:33;7.40;1.40
316;DHT22;14128;48.686;9.738;2023-03-14T04:45:00;7.50;1.40
316;DHT22;14128;48.686;9.738;2023-03-14T04:47:27;7.50;1.40
316;DHT22;14128;48.686;9.738;2023-03-14T04:49:54;7.50;1.40
316;DHT22;14128;48.686;9.738;2023-03-14T04:52:21;7.60;1.40
316;DHT22;14128;48.686;9.738;2023-03-14T04:54:47;7.50;1.40
316;DHT22;14128;48.686;9.738;2023-03-14T04:57:14;7.60;1.40
316;DHT22;14128;48.686;9.738;2023-03-14T04:59:42;7.60;1.40
316;DHT22;14128;48.686;9.738;2023-03-14T05:02:09;7.50;1.40
316;DHT22;14128;48.686;9.738;2023-03-14T05:04:36;7.50;1.40
316;DHT22;14128;48.686;9.738;2023-03-14T05:07:03;7.60;1.40
316;DHT22;14128;48.686;9.738;2023-03-14T05:09:29;7.60;1.40
316;DHT22;14128;48.686;9.738;2023-03-14T05:11:56;7.60;1.40
316;DHT22;14128;48.686;9.738;2023-03-14T05:14:23;7.70;1.40
316;DHT22;14128;48.686;9.738;2023-03-14T05:16:51;7.70;1.40
316;DHT22;14128;48.686;9.738;2023-03-14T05:19:18;7.70;1.40
316;DHT22;14128;48.686;9.738;2023-03-14T05:21:45;7.60;1.40
316;DHT22;14128;48.686;9.738;2023-03-14T05:24:12;7.50;1.40
316;DHT22;14128;48.686;9.738;2023-03-14T05:26:38;7.50;1.40
316;DHT22;14128;48.686;9.738;2023-03-14T05:29:05;7.50;1.40
316;DHT22;14128;48.686;9.738;2023-03-14T05:31:32;7.50;1.40
316;DHT22;14128;48.686;9.738;2023-03-14T05:34:00;7.60;1.40
316;DHT22;14128;48.686;9.738;2023-03-14T05:36:27;7.70;1.40
316;DHT22;14128;48.686;9.738;2023-03-14T05:38:53;7.60;1.40
316;DHT22;14128;48.686;9.738;2023-03-14T05:41:20;7.70;1.40
316;DHT22;14128;48.686;9.738;2023-03-14T05:43:47;7.70;1.40
316;DHT22;14128;48.686;9.738;2023-03-14T05:46:14;7.60;1.40
316;DHT22;14128;48.686;9.738;2023-03-14T05:48:40;7.70;1.40
316;DHT22;14128;48.686;9.738;2023-03-14T05:51:09;7.80;1.40
316;DHT22;14128;48.686;9.738;2023-03-14T05:53:35;7.80;1.40
316;DHT22;14128;48.686;9.738;2023-03-14T05:56:02;7.90;1.40
316;DHT22;14128;48.686;9.738;2023-03-14T05:58:29;7.80;1.40
316;DHT22;14128;48.686;9.738;2023-03-14T06:00:56;7.90;1.40
316;DHT22;14128;48.686;9.738;2023-03-14T06:03:23;7.90;1.40
316;DHT22;14128;48.686;9.738;2023-03-14T06:05:50;7.90;1.40
316;DHT22;14128;48.686;9.738;2023-03-14T06:08:18;8.00;1.40
316;DHT22;14128;48.686;9.738;2023-03-14T06:10:45;7.90;1.40
316;DHT22;14128;48.686;9.738;2023-03-14T06:13:11;8.00;1.40
316;DHT22;14128;48.686;9.738;2023-03-14T06:15:38;8.10;1.40
316;DHT22;14128;48.686;9.738;2023-03-14T06:18:05;8.00;1.40
316;DHT22;14128;48.686;9.738;2023-03-14T06:20:32;7.90;1.40
316;DHT22;14128;48.686;9.738;2023-03-14T06:23:00;7.90;1.40
316;DHT22;14128;48.686;9.738;2023-03-14T06:25:28;7.90;1.40
316;DHT22;14128;48.686;9.738;2023-03-14T06:27:55;7.90;1.40
316;DHT22;14128;48.686;9.738;2023-03-14T06:30:22;7.90;1.40
316;DHT22;14128;48.686;9.738;2023-03-14T06:32:49;8.00;1.40
316;DHT22;14128;48.686;9.738;2023-03-14T06:35:16;8.10;1.40
316;DHT22;14128;48.686;9.738;2023-03-14T06:37:43;8.10;1.40
316;DHT22;14128;48.686;9.738;2023-03-14T06:40:11;8.20;1.40
316;DHT22;14128;48.686;9.738;2023-03-14T06:42:43;8.20;1.40
316;DHT22;14128;48.686;9.738;2023-03-14T06:45:10;8.30;1.40
316;DHT22;14128;48.686;9.738;2023-03-14T06:47:37;8.30;1.40
316;DHT22;14128;48.686;9.738;2023-03-14T06:50:05;8.30;1.40
316;DHT22;14128;48.686;9.738;2023-03-14T06:52:32;8.30;1.40
316;DHT22;14128;48.686;9.738;2023-03-14T06:54:59;8.40;1.40
316;DHT22;14128;48.686;9.738;2023-03-14T06:57:26;8.40;1.40
316;DHT22;14128;48.686;9.738;2023-03-14T06:59:54;8.40;1.40
316;DHT22;14128;48.686;9.738;2023-03-14T07:02:23;8.40;1.40
316;DHT22;14128;48.686;9.738;2023-03-14T07:04:50;8.30;1.40
316;DHT22;14128;48.686;9.738;2023-03-14T07:07:16;8.30;1.40
316;DHT22;14128;48.686;9.738;2023-03-14T07:09:43;8.30;1.40
316;DHT22;14128;48.686;9.738;2023-03-14T07:12:10;8.40;1.40
316;DHT22;14128;48.686;9.738;2023-03-14T07:14:37;8.40;1.40
316;DHT22;14128;48.686;9.738;2023-03-14T07:17:05;8.50;1.40
316;DHT22;14128;48.686;9.738;2023-03-14T07:19:32;8.60;1.40
316;DHT22;14128;48.686;9.738;2023-03-14T07:21:58;8.40;1.40
316;DHT22;14128;48.686;9.738;2023-03-14T07:24:25;8.40;1.40
316;DHT22;14128;48.686;9.738;2023-03-14T07:26:52;8.40;1.40
316;DHT22;14128;48.686;9.738;2023-03-14T07:29:19;8.50;1.40
316;DHT22;14128;48.686;9.738;2023-03-14T07:31:45;8.70;1.40
316;DHT22;14128;48.686;9.738;2023-03-14T07:34:14;8.80;1.40
316;DHT22;14128;48.686;9.738;2023-03-14T07:36:41;8.90;1.40
316;DHT22;14128;48.686;9.738;2023-03-14T07:39:07;9.00;1.40
316;DHT22;14128;48.686;9.738;2023-03-14T07:41:34;9.00;1.40
316;DHT22;14128;48.686;9.738;2023-03-14T07:44:01;9.10;1.40
316;DHT22;14128;48.686;9.738;2023-03-14T07:46:28;9.20;1.40
316;DHT22;14128;48.686;9.738;2023-03-14T07:48:55;9.30;1.40
316;DHT22;14128;48.686;9.738;2023-03-14T07:51:23;9.30;1.40
316;DHT22;14128;48.686;9.738;2023-03-14T07:53:50;9.30;1.40
316;DHT22;14128;48.686;9.738;2023-03-14T07:56:16;9.30;1.40
316;DHT22;14128;48.686;9.738;2023-03-14T07:58:43;9.20;1.40
316;DHT22;14128;48.686;9.738;2023-03-14T08:01:10;9.10;1.40
316;DHT22;14128;48.686;9.738;2023-03-14T08:03:37;9.20;1.40
316;DHT22;14128;48.686;9.738;2023-03-14T08:06:04;9.40;1.40
316;DHT22;14128;48.686;9.738;2023-03-14T08:08:32;9.50;1.40
316;DHT22;14128;48.686;9.738;2023-03-14T08:11:03;9.60;1.40
316;DHT22;14128;48.686;9.738;2023-03-14T08:13:30;9.80;1.40
316;DHT22;14128;48.686;9.738;2023-03-14T08:15:56;9.80;1.40
316;DHT22;14128;48.686;9.738;2023-03-14T08:18:23;9.80;1.40
316;DHT22;14128;48.686;9.738;2023-03-14T08:20:50;10.10;1.40
316;DHT22;14128;48.686;9.738;2023-03-14T08:23:17;10.20;1.40
316;DHT22;14128;48.686;9.738;2023-03-14T08:25:45;10.30;1.40
316;DHT22;14128;48.686;9.738;2023-03-14T08:28:12;10.50;1.40
316;DHT22;14128;48.686;9.738;2023-03-14T08:30:39;10.60;1.40
316;DHT22;14128;48.686;9.738;2023-03-14T08:33:05;10.70;1.40
316;DHT22;14128;48.686;9.738;2023-03-14T08:35:34;10.70;1.40
316;DHT22;14128;48.686;9.738;2023-03-14T08:38:01;10.50;1.40
316;DHT22;14128;48.686;9.738;2023-03-14T08:40:28;10.20;1.40
316;DHT22;14128;48.686;9.738;2023-03-14T08:42:56;10.40;1.40
316;DHT22;14128;48.686;9.738;2023-03-14T08:45:23;10.20;1.40
316;DHT22;14128;48.686;9.738;2023-03-14T08:47:50;10.00;1.40
316;DHT22;14128;48.686;9.738;2023-03-14T08:50:17;10.00;1.40
316;DHT22;14128;48.686;9.738;2023-03-14T08:52:44;10.00;1.40
316;DHT22;14128;48.686;9.738;2023-03-14T08:55:11;9.90;1.40
316;DHT22;14128;48.686;9.738;2023-03-14T08:57:38;9.80;1.40
316;DHT22;14128;48.686;9.738;2023-03-14T09:00:07;10.00;1.40
316;DHT22;14128;48.686;9.738;2023-03-14T09:02:37;10.10;1.40
316;DHT22;14128;48.686;9.738;2023-03-14T09:05:05;10.20;1.40
316;DHT22;14128;48.686;9.738;2023-03-14T09:07:32;10.00;1.40
316;DHT22;14128;48.686;9.738;2023-03-14T09:09:59;10.30;1.40
316;DHT22;14128;48.686;9.738;2023-03-14T09:12:26;10.30;1.40
316;DHT22;14128;48.686;9.738;2023-03-14T09:14:53;10.50;1.40
316;DHT22;14128;48.686;9.738;2023-03-14T09:17:21;10.50;1.40
316;DHT22;14128;48.686;9.738;2023-03-14T09:19:48;10.60;1.40
316;DHT22;14128;48.686;9.738;2023-03-14T09:22:14;10.80;1.40
316;DHT22;14128;48.686;9.738;2023-03-14T09:24:41;11.00;1.40
316;DHT22;14128;48.686;9.738;2023-03-14T09:27:08;10.90;1.40
316;DHT22;14128;48.686;9.738;2023-03-14T09:29:35;10.80;1.40
316;DHT22;14128;48.686;9.738;2023-03-14T09:32:02;10.70;1.40
316;DHT22;14128;48.686;9.738;2023-03-14T09:34:30;10.80;1.40
316;DHT22;14128;48.686;9.738;2023-03-14T09:36:57;11.00;1.40
316;DHT22;14128;48.686;9.738;2023-03-14T09:39:23;10.90;1.40
316;DHT22;14128;48.686;9.738;2023-03-14T09:41:51;11.20;1.40
316;DHT22;14128;48.686;9.738;2023-03-14T09:44:21;11.40;1.40
316;DHT22;14128;48.686;9.738;2023-03-14T09:46:52;11.60;1.40
316;DHT22;14128;48.686;9.738;2023-03-14T09:49:21;11.40;1.40
316;DHT22;14128;48.686;9.738;2023-03-14T09:51:53;11.60;1.40
316;DHT22;14128;48.686;9.738;2023-03-14T09:54:30;11.60;1.40
316;DHT22;14128;48.686;9.738;2023-03-14T09:56:57;11.90;1.40
316;DHT22;14128;48.686;9.738;2023-03-14T09:59:25;11.80;1.40
316;DHT22;14128;48.686;9.738;2023-03-14T10:01:52;11.80;1.40
316;DHT22;14128;48.686;9.738;2023-03-14T10:04:22;12.20;1.40
316;DHT22;14128;48.686;9.738;2023-03-14T10:06:50;12.30;1.40
316;DHT22;14128;48.686;9.738;2023-03-14T10:09:20;12.30;1.40
316;DHT22;14128;48.686;9.738;2023-03-14T10:11:52;11.90;1.40
316;DHT22;14128;48.686;9.738;2023-03-14T10:14:29;11.70;1.40
316;DHT22;14128;48.686;9.738;2023-03-14T10:17:05;11.50;1.40
316;DHT22;14128;48.686;9.738;2023-03-14T10:19:33;11.30;1.40
316;DHT22;14128;48.686;9.738;2023-03-14T10:22:04;11.50;1.40
316;DHT22;14128;48.686;9.738;2023-03-14T10:24:32;11.60;1.40
316;DHT22;14128;48.686;9.738;2023-03-14T10:27:02;11.90;1.40
316;DHT22;14128;48.686;9.738;2023-03-14T10:29:30;12.00;1.40
316;DHT22;14128;48.686;9.738;2023-03-14T10:32:02;12.10;1.40
316;DHT22;14128;48.686;9.738;2023-03-14T10:34:30;12.20;1.40
316;DHT22;14128;48.686;9.738;2023-03-14T10:36:59;12.10;1.40
316;DHT22;14128;48.686;9.738;2023-03-14T10:39:41;12.00;1.40
316;DHT22;14128;48.686;9.738;2023-03-14T10:42:16;12.20;1.40
316;DHT22;14128;48.686;9.738;2023-03-14T10:44:45;12.20;1.40
316;DHT22;14128;48.686;9.738;2023-03-14T10:47:17;12.50;1.40
316;DHT22;14128;48.686;9.738;2023-03-14T10:49:45;12.60;1.40
316;DHT22;14128;48.686;9.738;2023-03-14T10:52:17;12.10;1.40
316;DHT22;14128;48.686;9.738;2023-03-14T10:54:48;11.90;1.40
316;DHT22;14128;48.686;9.738;2023-03-14T10:57:15;11.80;1.40
316;DHT22;14128;48.686;9.738;2023-03-14T10:59:43;11.70;1.40
316;DHT22;14128;48.686;9.738;2023-03-14T11:02:34;11.70;1.40
316;DHT22;14128;48.686;9.738;2023-03-14T11:05:15;12.30;1.40
316;DHT22;14128;48.686;9.738;2023-03-14T11:07:45;12.80;1.40
316;DHT22;14128;48.686;9.738;2023-03-14T11:10:19;13.60;1.40
316;DHT22;14128;48.686;9.738;2023-03-14T11:12:55;13.90;1.40
316;DHT22;14128;48.686;9.738;2023-03-14T11:15:32;14.10;1.40
316;DHT22;14128;48.686;9.738;2023-03-14T11:18:14;14.10;1.40
316;DHT22;14128;48.686;9.738;2023-03-14T11:20:46;14.00;1.40
316;DHT22;14128;48.686;9.738;2023-03-14T11:23:20;13.70;1.40
316;DHT22;14128;48.686;9.738;2023-03-14T11:25:54;13.40;1.40
316;DHT22;14128;48.686;9.738;2023-03-14T11:28:27;13.40;1.40
316;DHT22;14128;48.686;9.738;2023-03-14T11:31:04;13.10;1.40
316;DHT22;14128;48.686;9.738;2023-03-14T11:33:47;12.80;1.40
316;DHT22;14128;48.686;9.738;2023-03-14T11:36:18;12.50;1.40
316;DHT22;14128;48.686;9.738;2023-03-14T11:38:48;12.20;1.40
316;DHT22;14128;48.686;9.738;2023-03-14T11:41:19;12.10;1.40
316;DHT22;14128;48.686;9.738;2023-03-14T11:43:48;12.00;1.40
316;DHT22;14128;48.686;9.738;2023-03-14T11:46:18;11.80;1.40
316;DHT22;14128;48.686;9.738;2023-03-14T11:48:55;11.70;1.40
316;DHT22;14128;48.686;9.738;2023-03-14T11:51:25;11.70;1.40
316;DHT22;14128;48.686;9.738;2023-03-14T11:54:00;11.70;1.40
316;DHT22;14128;48.686;9.738;2023-03-14T11:56:33;11.50;1.40
316;DHT22;14128;48.686;9.738;2023-03-14T11:59:04;11.50;1.40
316;DHT22;14128;48.686;9.738;2023-03-14T12:01:44;11.30;1.40
316;DHT22;14128;48.686;9.738;2023-03-14T12:04:18;11.10;1.40
316;DHT22;14128;48.686;9.738;2023-03-14T12:06:50;11.00;1.40
316;DHT22;14128;48.686;9.738;2023-03-14T12:09:18;11.00;1.40
316;DHT22;14128;48.686;9.738;2023-03-14T12:11:50;11.00;1.40
316;DHT22;14128;48.686;9.738;2023-03-14T12:14:24;10.80;1.40
316;DHT22;14128;48.686;9.738;2023-03-14T12:16:57;10.70;1.40
316;DHT22;14128;48.686;9.738;2023-03-14T12:19:27;10.60;1.40
316;DHT22;14128;48.686;9.738;2023-03-14T12:21:57;10.40;1.40
316;DHT22;14128;48.686;9.738;2023-03-14T12:24:27;10.20;1.40
316;DHT22;14128;48.686;9.738;2023-03-14T12:26:57;10.10;1.40
316;DHT22;14128;48.686;9.738;2023-03-14T12:29:25;10.00;1.40
316;DHT22;14128;48.686;9.738;2023-03-14T12:32:21;10.00;1.40
316;DHT22;14128;48.686;9.738;2023-03-14T12:34:49;10.20;1.40
316;DHT22;14128;48.686;9.738;2023-03-14T12:37:32;10.20;1.40
316;DHT22;14128;48.686;9.738;2023-03-14T12:40:11;10.30;1.40
316;DHT22;14128;48.686;9.738;2023-03-14T12:42:57;10.40;1.40
316;DHT22;14128;48.686;9.738;2023-03-14T12:45:27;10.40;1.40
316;DHT22;14128;48.686;9.738;2023-03-14T12:48:00;10.40;1.40
316;DHT22;14128;48.686;9.738;2023-03-14T12:50:36;10.30;1.40
316;DHT22;14128;48.686;9.738;2023-03-14T12:53:49;10.20;1.40
316;DHT22;14128;48.686;9.738;2023-03-14T12:56:24;10.20;1.40
316;DHT22;14128;48.686;9.738;2023-03-14T12:59:11;10.20;1.40
316;DHT22;14128;48.686;9.738;2023-03-14T13:01:47;10.20;1.40
316;DHT22;14128;48.686;9.738;2023-03-14T13:04:14;10.20;1.40
316;DHT22;14128;48.686;9.738;2023-03-14T13:06:51;10.40;1.40
316;DHT22;14128;48.686;9.738;2023-03-14T13:12:27;10.20;1.40
316;DHT22;14128;48.686;9.738;2023-03-14T13:14:58;10.30;1.40
316;DHT22;14128;48.686;9.738;2023-03-14T13:17:30;10.30;1.40
316;DHT22;14128;48.686;9.738;2023-03-14T13:20:01;10.30;1.40
316;DHT22;14128;48.686;9.738;2023-03-14T13:22:33;10.40;1.40
316;DHT22;14128;48.686;9.738;2023-03-14T13:25:04;10.50;1.40
316;DHT22;14128;48.686;9.738;2023-03-14T13:27:33;10.50;1.40
316;DHT22;14128;48.686;9.738;2023-03-14T13:30:17;10.70;1.40
316;DHT22;14128;48.686;9.738;2023-03-14T13:32:45;10.50;1.40
316;DHT22;14128;48.686;9.738;2023-03-14T13:35:17;10.20;1.40
316;DHT22;14128;48.686;9.738;2023-03-14T13:37:45;10.00;1.40
316;DHT22;14128;48.686;9.738;2023-03-14T13:40:25;9.80;1.40
316;DHT22;14128;48.686;9.738;2023-03-14T13:43:04;9.60;1.40
316;DHT22;14128;48.686;9.738;2023-03-14T13:45:45;9.60;1.40
316;DHT22;14128;48.686;9.738;2023-03-14T13:48:14;9.70;1.40
316;DHT22;14128;48.686;9.738;2023-03-14T13:50:53;9.80;1.40
316;DHT22;14128;48.686;9.738;2023-03-14T13:53:20;9.80;1.40
316;DHT22;14128;48.686;9.738;2023-03-14T13:55:47;10.10;1.40
316;DHT22;14128;48.686;9.738;2023-03-14T13:58:24;10.20;1.40
316;DHT22;14128;48.686;9.738;2023-03-14T14:00:59;10.40;1.40
316;DHT22;14128;48.686;9.738;2023-03-14T14:03:28;10.20;1.40
316;DHT22;14128;48.686;9.738;2023-03-14T14:05:57;9.70;1.40
316;DHT22;14128;48.686;9.738;2023-03-14T14:08:24;9.70;1.40
316;DHT22;14128;48.686;9.738;2023-03-14T14:10:57;9.50;1.40
316;DHT22;14128;48.686;9.738;2023-03-14T14:13:25;9.10;1.40
316;DHT22;14128;48.686;9.738;2023-03-14T14:15:53;9.00;1.40
316;DHT22;14128;48.686;9.738;2023-03-14T14:18:24;8.70;1.40
316;DHT22;14128;48.686;9.738;2023-03-14T14:20:53;8.80;1.40
316;DHT22;14128;48.686;9.738;2023-03-14T14:23:22;9.10;1.40
316;DHT22;14128;48.686;9.738;2023-03-14T14:25:52;9.30;1.40
316;DHT22;14128;48.686;9.738;2023-03-14T14:28:24;9.60;1.40
316;DHT22;14128;48.686;9.738;2023-03-14T14:31:05;9.10;1.40
316;DHT22;14128;48.686;9.738;2023-03-14T14:33:40;9.00;1.40
316;DHT22;14128;48.686;9.738;2023-03-14T14:36:17;8.60;1.40
316;DHT22;14128;48.686;9.738;2023-03-14T14:38:50;8.40;1.40
316;DHT22;14128;48.686;9.738;2023-03-14T14:41:17;8.20;1.40
316;DHT22;14128;48.686;9.738;2023-03-14T14:43:44;8.20;1.40
316;DHT22;14128;48.686;9.738;2023-03-14T14:46:16;8.10;1.40
316;DHT22;14128;48.686;9.738;2023-03-14T14:48:45;8.20;1.40
316;DHT22;14128;48.686;9.738;2023-03-14T14:51:22;8.20;1.40
316;DHT22;14128;48.686;9.738;2023-03-14T14:53:59;8.40;1.40
316;DHT22;14128;48.686;9.738;2023-03-14T14:56:27;8.80;1.40
316;DHT22;14128;48.686;9.738;2023-03-14T14:58:57;9.00;1.40
316;DHT22;14128;48.686;9.738;2023-03-14T15:01:32;8.90;1.40
316;DHT22;14128;48.686;9.738;2023-03-14T15:04:01;8.90;1.40
316;DHT22;14128;48.686;9.738;2023-03-14T15:06:29;8.40;1.40
316;DHT22;14128;48.686;9.738;2023-03-14T15:08:57;8.30;1.40
316;DHT22;14128;48.686;9.738;2023-03-14T15:11:25;8.40;1.40
316;DHT22;14128;48.686;9.738;2023-03-14T15:13:52;7.90;1.40
316;DHT22;14128;48.686;9.738;2023-03-14T15:16:21;7.80;1.40
316;DHT22;14128;48.686;9.738;2023-03-14T15:18:53;7.90;1.40
316;DHT22;14128;48.686;9.738;2023-03-14T15:21:22;7.90;1.40
316;DHT22;14128;48.686;9.738;2023-03-14T15:23:49;7.70;1.40
316;DHT22;14128;48.686;9.738;2023-03-14T15:26:17;7.60;1.40
316;DHT22;14128;48.686;9.738;2023-03-14T15:28:44;7.50;1.40
316;DHT22;14128;48.686;9.738;2023-03-14T15:31:13;7.50;1.40
316;DHT22;14128;48.686;9.738;2023-03-14T15:33:40;7.50;1.40
316;DHT22;14128;48.686;9.738;2023-03-14T15:36:19;7.80;1.40
316;DHT22;14128;48.686;9.738;2023-03-14T15:38:47;7.90;1.40
316;DHT22;14128;48.686;9.738;2023-03-14T15:41:14;8.00;1.40
316;DHT22;14128;48.686;9.738;2023-03-14T15:43:42;8.20;1.40
316;DHT22;14128;48.686;9.738;2023-03-14T15:46:08;8.30;1.40
316;DHT22;14128;48.686;9.738;2023-03-14T15:48:35;9.10;1.40
316;DHT22;14128;48.686;9.738;2023-03-14T15:51:03;11.40;1.40
316;DHT22;14128;48.686;9.738;2023-03-14T15:53:29;11.50;1.40
316;DHT22;14128;48.686;9.738;2023-03-14T15:55:58;11.40;1.40
316;DHT22;14128;48.686;9.738;2023-03-14T15:58:25;11.00;1.40
316;DHT22;14128;48.686;9.738;2023-03-14T16:00:51;11.90;1.40
316;DHT22;14128;48.686;9.738;2023-03-14T16:03:18;11.50;1.40
316;DHT22;14128;48.686;9.738;2023-03-14T16:05:45;10.90;1.40
316;DHT22;14128;48.686;9.738;2023-03-14T16:08:12;10.60;1.40
316;DHT22;14128;48.686;9.738;2023-03-14T16:10:39;10.40;1.40
316;DHT22;14128;48.686;9.738;2023-03-14T16:13:08;11.90;1.40
316;DHT22;14128;48.686;9.738;2023-03-14T16:15:34;12.30;1.40
316;DHT22;14128;48.686;9.738;2023-03-14T16:18:01;12.50;1.40
316;DHT22;14128;48.686;9.738;2023-03-14T16:20:28;12.20;1.40
316;DHT22;14128;48.686;9.738;2023-03-14T16:22:55;11.20;1.40
316;DHT22;14128;48.686;9.738;2023-03-14T16:25:22;10.60;1.40
316;DHT22;14128;48.686;9.738;2023-03-14T16:27:49;10.10;1.40
316;DHT22;14128;48.686;9.738;2023-03-14T16:30:17;9.70;1.40
316;DHT22;14128;48.686;9.738;2023-03-14T16:32:47;9.50;1.40
316;DHT22;14128;48.686;9.738;2023-03-14T16:35:14;9.10;1.40
316;DHT22;14128;48.686;9.738;2023-03-14T16:37:40;9.10;1.40
316;DHT22;14128;48.686;9.738;2023-03-14T16:40:08;9.00;1.40
316;DHT22;14128;48.686;9.738;2023-03-14T16:42:35;8.90;1.40
316;DHT22;14128;48.686;9.738;2023-03-14T16:45:02;8.80;1.40
316;DHT22;14128;48.686;9.738;2023-03-14T16:47:31;8.80;1.40